Time;durP1;ratioP1;P1;durP2;ratioP2;P2;SDS_P1;SDS_P2;PMS_P1;PMS_P2;Temp;Humidity;BMP_temperature;BMP_pressure;BME280_temperature;BME280_humidity;BME280_pressure;Samples;Min_cycle;Max_cycle;Signal;HPM_P1;HPM_P2
2022/07/02 00:00:56;;;;;;;0.50;0.10;;;;;;;10.88;100.00;101191.13;5081801;28;20028;-47
2022/07/02 00:03:37;;;;;;;1.35;0.50;;;;;;;10.92;100.00;101199.56;5086539;28;20562;-50
2022/07/02 00:06:04;;;;;;;2.35;0.32;;;;;;;10.89;100.00;101200.75;5083131;28;20031;-50
2022/07/02 00:08:30;;;;;;;2.05;0.30;;;;;;;10.89;100.00;101195.44;5075683;28;20129;-53
2022/07/02 00:10:57;;;;;;;0.32;0.30;;;;;;;10.88;100.00;101192.94;5083542;28;20028;-46
2022/07/02 00:13:25;;;;;;;2.03;0.50;;;;;;;10.90;100.00;101196.25;5056974;28;20039;-50
2022/07/02 00:15:51;;;;;;;2.42;1.10;;;;;;;10.92;100.00;101199.56;5088442;28;20126;-49
2022/07/02 00:18:18;;;;;;;3.53;0.73;;;;;;;10.91;100.00;101197.91;5083881;28;20088;-51
2022/07/02 00:20:45;;;;;;;0.35;0.10;;;;;;;10.87;100.00;101201.91;5080148;28;20115;-49
2022/07/02 00:23:11;;;;;;;7.95;1.00;;;;;;;10.84;100.00;101202.25;5071744;28;20361;-51
2022/07/02 00:25:41;;;;;;;2.67;0.50;;;;;;;10.82;100.00;101196.31;5079370;28;20475;-48
2022/07/02 00:28:12;;;;;;;2.73;0.20;;;;;;;10.83;100.00;101195.31;5084674;28;20031;-48
2022/07/02 00:30:39;;;;;;;2.25;0.32;;;;;;;10.76;100.00;101189.03;5082336;28;20024;-46
2022/07/02 00:33:04;;;;;;;7.30;0.75;;;;;;;10.69;100.00;101187.09;5083786;28;20024;-51
2022/07/02 00:35:30;;;;;;;1.73;0.10;;;;;;;10.67;100.00;101185.63;5083167;28;20038;-47
2022/07/02 00:37:56;;;;;;;2.42;0.10;;;;;;;10.60;100.00;101185.47;5078373;28;20038;-51
2022/07/02 00:40:23;;;;;;;3.05;0.38;;;;;;;10.53;100.00;101186.34;5084642;28;20031;-47
2022/07/02 00:42:49;;;;;;;1.15;0.20;;;;;;;10.51;100.00;101202.44;5082424;28;20039;-47
2022/07/02 00:45:16;;;;;;;4.72;0.32;;;;;;;10.51;100.00;101194.47;5086211;28;20044;-46
2022/07/02 00:47:43;;;;;;;4.93;0.73;;;;;;;10.52;100.00;101197.97;5083911;28;20472;-47
2022/07/02 00:50:09;;;;;;;3.13;0.22;;;;;;;10.51;100.00;101197.13;5064215;28;20118;-49
2022/07/02 00:52:34;;;;;;;1.50;0.40;;;;;;;10.45;100.00;101188.06;5083833;28;20531;-54
2022/07/02 00:55:00;;;;;;;4.28;0.20;;;;;;;10.44;100.00;101193.50;5065575;28;20365;-47
2022/07/02 00:57:25;;;;;;;2.28;0.50;;;;;;;10.41;100.00;101192.03;5079144;28;20025;-48
2022/07/02 00:59:51;;;;;;;2.38;0.30;;;;;;;10.35;100.00;101183.94;5075740;28;20521;-49
2022/07/02 01:02:21;;;;;;;3.22;0.30;;;;;;;10.31;100.00;101180.00;5086599;28;20035;-53
2022/07/02 01:04:48;;;;;;;5.03;0.70;;;;;;;10.23;100.00;101181.63;5082818;28;20032;-53
2022/07/02 01:07:16;;;;;;;1.42;0.65;;;;;;;10.20;100.00;101181.97;5079569;28;20400;-52
2022/07/02 01:12:30;;;;;;;1.58;0.77;;;;;;;10.20;100.00;101178.50;5085667;28;20042;-47
2022/07/02 01:14:57;;;;;;;3.03;0.45;;;;;;;10.17;100.00;101178.84;5080917;28;20111;-50
2022/07/02 01:17:23;;;;;;;4.47;1.25;;;;;;;10.11;100.00;101179.53;5080226;28;20051;-50
2022/07/02 01:19:49;;;;;;;3.42;0.40;;;;;;;10.07;100.00;101178.19;5083463;28;20437;-48
2022/07/02 01:22:22;;;;;;;1.15;0.40;;;;;;;10.04;100.00;101174.06;5080289;28;20036;-53
2022/07/02 01:24:51;;;;;;;5.93;0.40;;;;;;;10.03;100.00;101190.97;5038421;28;20563;-51
2022/07/02 01:27:17;;;;;;;3.75;0.17;;;;;;;10.02;100.00;101182.22;5076494;28;20508;-51
2022/07/02 01:29:43;;;;;;;3.33;0.22;;;;;;;9.99;100.00;101176.41;5077488;28;20097;-46
2022/07/02 01:32:09;;;;;;;3.65;1.23;;;;;;;9.99;100.00;101177.25;5086112;28;20043;-49
2022/07/02 01:34:59;;;;;;;1.63;0.20;;;;;;;9.95;100.00;101181.22;5074945;28;20025;-53
2022/07/02 01:37:24;;;;;;;2.55;0.20;;;;;;;9.89;100.00;101181.09;5075348;28;20071;-50
2022/07/02 01:39:50;;;;;;;1.80;0.40;;;;;;;9.88;100.00;101180.25;5081628;28;20063;-52
2022/07/02 01:42:15;;;;;;;6.35;0.63;;;;;;;9.89;100.00;101178.44;5085629;28;20032;-47
2022/07/02 01:44:42;;;;;;;2.05;0.65;;;;;;;9.89;100.00;101179.28;5075766;28;20039;-53
2022/07/02 01:47:09;;;;;;;3.97;0.60;;;;;;;9.96;100.00;101184.69;5079026;28;20043;-49
2022/07/02 01:49:36;;;;;;;2.08;0.30;;;;;;;10.02;100.00;101186.69;5075166;28;20357;-49
2022/07/02 01:52:03;;;;;;;1.83;0.35;;;;;;;10.13;100.00;101174.88;5087316;28;20125;-48
2022/07/02 01:54:28;;;;;;;2.65;0.13;;;;;;;10.26;100.00;101185.78;5085237;28;20132;-48
2022/07/02 01:56:54;;;;;;;2.00;0.20;;;;;;;10.34;100.00;101179.63;5086437;28;20153;-47
2022/07/02 01:59:20;;;;;;;2.42;0.47;;;;;;;10.41;100.00;101177.97;5075385;28;20032;-49
2022/07/02 02:01:46;;;;;;;4.40;0.88;;;;;;;10.53;100.00;101178.38;5072560;28;20106;-50
2022/07/02 02:04:11;;;;;;;3.42;0.85;;;;;;;10.60;100.00;101169.56;5087561;28;20050;-47
2022/07/02 02:06:37;;;;;;;4.30;0.20;;;;;;;10.69;100.00;101173.84;5082640;28;20024;-44
2022/07/02 02:09:04;;;;;;;1.85;0.80;;;;;;;10.74;100.00;101175.13;5081036;28;20025;-47
2022/07/02 02:11:29;;;;;;;5.90;0.50;;;;;;;10.75;100.00;101171.47;5084395;28;20032;-50
2022/07/02 02:13:58;;;;;;;5.28;0.65;;;;;;;10.72;100.00;101174.50;5086239;28;20059;-49
2022/07/02 02:16:25;;;;;;;4.45;0.43;;;;;;;10.65;100.00;101161.91;5084575;28;20411;-50
2022/07/02 02:18:50;;;;;;;1.65;0.32;;;;;;;10.60;100.00;101160.78;5080727;28;20444;-52
2022/07/02 02:21:15;;;;;;;0.50;0.15;;;;;;;10.47;100.00;101166.66;5072780;28;20036;-49
2022/07/02 02:23:41;;;;;;;3.25;0.17;;;;;;;10.37;100.00;101168.69;5083172;28;20115;-49
2022/07/02 02:26:06;;;;;;;0.85;0.20;;;;;;;10.37;100.00;101168.69;5071034;28;20059;-47
2022/07/02 02:28:32;;;;;;;1.40;0.57;;;;;;;10.38;100.00;101168.53;5086688;28;20107;-47
2022/07/02 02:30:57;;;;;;;3.38;0.22;;;;;;;10.29;100.00;101180.16;5083774;28;20543;-47
2022/07/02 02:33:23;;;;;;;0.38;0.10;;;;;;;10.21;100.00;101178.31;5081265;28;20036;-53
2022/07/02 02:35:48;;;;;;;1.20;0.30;;;;;;;10.18;100.00;101181.31;5077190;28;20032;-52
2022/07/02 02:38:14;;;;;;;3.60;1.02;;;;;;;10.16;100.00;101172.72;5085540;28;20028;-53
2022/07/02 02:40:39;;;;;;;2.45;0.47;;;;;;;10.06;100.00;101180.03;5083620;28;20111;-49
2022/07/02 02:43:05;;;;;;;0.65;0.10;;;;;;;10.01;100.00;101177.88;5082872;28;20458;-52
2022/07/02 02:45:30;;;;;;;2.17;0.30;;;;;;;9.97;100.00;101173.13;5071108;28;20042;-54
2022/07/02 02:47:55;;;;;;;3.30;0.30;;;;;;;9.98;100.00;101175.59;5079638;28;20028;-52
2022/07/02 02:50:21;;;;;;;4.13;0.63;;;;;;;9.96;100.00;101169.63;5070731;28;20032;-53
2022/07/02 02:52:46;;;;;;;5.13;0.85;;;;;;;9.90;100.00;101172.16;5087644;28;20120;-51
2022/07/02 02:55:12;;;;;;;5.22;0.47;;;;;;;9.87;100.00;101173.31;5086945;28;20377;-51
2022/07/02 02:57:37;;;;;;;5.65;0.57;;;;;;;9.85;100.00;101161.22;5081437;28;20086;-48
2022/07/02 03:00:03;;;;;;;8.63;0.57;;;;;;;9.82;100.00;101173.81;5080596;28;20443;-51
2022/07/02 03:02:29;;;;;;;1.45;0.47;;;;;;;9.76;100.00;101173.69;5084557;28;20098;-54
2022/07/02 03:04:55;;;;;;;4.82;0.43;;;;;;;9.75;100.00;101180.75;5087003;28;20032;-50
2022/07/02 03:07:20;;;;;;;2.13;0.55;;;;;;;9.75;100.00;101175.47;5066701;28;20051;-49
2022/07/02 03:09:45;;;;;;;2.60;0.60;;;;;;;9.77;100.00;101177.97;5083061;28;20078;-51
2022/07/02 03:12:11;;;;;;;3.00;0.30;;;;;;;9.73;100.00;101174.84;5089023;28;20177;-49
2022/07/02 03:14:37;;;;;;;5.20;0.80;;;;;;;9.75;100.00;101185.25;5085935;28;20384;-49
2022/07/02 03:17:02;;;;;;;3.88;0.45;;;;;;;9.72;100.00;101183.75;5085893;28;20142;-45
2022/07/02 03:19:27;;;;;;;2.05;0.17;;;;;;;9.71;100.00;101181.28;5081489;28;20031;-53
2022/07/02 03:21:53;;;;;;;4.00;0.52;;;;;;;9.64;100.00;101178.47;5087067;28;20798;-44
2022/07/02 03:24:19;;;;;;;3.83;0.70;;;;;;;9.70;100.00;101182.28;5087718;28;20384;-51
2022/07/02 03:26:44;;;;;;;3.17;0.20;;;;;;;9.64;100.00;101186.41;5093153;28;20508;-48
2022/07/02 03:29:09;;;;;;;1.25;0.20;;;;;;;9.62;100.00;101183.09;5087262;28;20039;-52
2022/07/02 03:31:35;;;;;;;3.33;0.30;;;;;;;9.59;100.00;101194.88;5068343;28;20069;-52
2022/07/02 03:34:00;;;;;;;3.88;0.90;;;;;;;9.60;100.00;101183.28;5079957;28;20055;-52
2022/07/02 03:36:26;;;;;;;5.10;1.05;;;;;;;9.58;100.00;101181.81;5091980;28;20043;-47
2022/07/02 03:38:51;;;;;;;3.65;0.32;;;;;;;9.58;100.00;101192.41;5065048;28;20065;-46
2022/07/02 03:41:17;;;;;;;5.20;1.00;;;;;;;9.59;100.00;101189.56;5090900;28;20354;-47
2022/07/02 03:43:42;;;;;;;2.05;0.40;;;;;;;9.60;100.00;101185.94;5082355;28;20033;-48
2022/07/02 03:46:08;;;;;;;6.45;0.50;;;;;;;9.56;100.00;101187.25;5070322;28;20353;-49
2022/07/02 03:48:33;;;;;;;6.78;0.60;;;;;;;9.60;100.00;101178.00;5084430;28;20404;-47
2022/07/02 03:50:59;;;;;;;2.92;0.80;;;;;;;9.58;100.00;101185.28;5070133;28;20031;-51
2022/07/02 03:53:24;;;;;;;6.13;0.45;;;;;;;9.57;100.00;101180.13;5087259;28;20040;-50
2022/07/02 03:55:50;;;;;;;4.47;0.32;;;;;;;9.53;100.00;101174.34;5083208;28;20043;-50
2022/07/02 03:58:15;;;;;;;2.78;0.38;;;;;;;9.52;100.00;101177.97;5092754;28;20110;-48
2022/07/02 04:00:40;;;;;;;3.75;1.38;;;;;;;9.51;100.00;101178.16;5083132;28;20057;-51
2022/07/02 04:03:06;;;;;;;3.38;0.45;;;;;;;9.43;100.00;101172.88;5086599;28;20031;-51
2022/07/02 04:05:32;;;;;;;1.05;0.52;;;;;;;9.42;100.00;101182.63;5082639;28;20035;-49
2022/07/02 04:07:57;;;;;;;1.90;0.80;;;;;;;9.36;100.00;101185.94;5082005;28;20031;-49
2022/07/02 04:10:23;;;;;;;1.80;0.43;;;;;;;9.31;100.00;101178.50;5061036;28;20563;-49
2022/07/02 04:12:48;;;;;;;1.92;0.50;;;;;;;9.29;100.00;101179.66;5077582;28;20024;-48
2022/07/02 04:15:14;;;;;;;2.05;0.80;;;;;;;9.24;100.00;101180.16;5082422;28;20126;-52
2022/07/02 04:17:39;;;;;;;1.67;0.30;;;;;;;9.26;100.00;101180.81;5070282;28;20030;-49
2022/07/02 04:20:05;;;;;;;3.00;0.80;;;;;;;9.27;100.00;101185.13;5084889;28;20061;-49
2022/07/02 04:22:31;;;;;;;2.83;0.35;;;;;;;9.35;100.00;101185.13;5088183;28;20027;-48
2022/07/02 04:24:56;;;;;;;5.22;1.10;;;;;;;9.46;100.00;101186.59;5067188;28;20040;-46
2022/07/02 04:27:22;;;;;;;7.97;2.22;;;;;;;9.56;100.00;101181.97;5088421;28;20028;-52
2022/07/02 04:29:48;;;;;;;2.30;1.77;;;;;;;9.56;100.00;101181.13;5087146;28;20477;-49
2022/07/02 04:32:13;;;;;;;5.32;0.50;;;;;;;9.54;100.00;101176.00;5085038;28;20032;-48
2022/07/02 04:34:39;;;;;;;4.45;0.63;;;;;;;9.51;100.00;101183.47;5078425;28;20056;-52
2022/07/02 04:37:04;;;;;;;5.03;1.05;;;;;;;9.49;100.00;101185.44;5085383;28;20470;-52
2022/07/02 04:39:30;;;;;;;2.72;0.40;;;;;;;9.49;100.00;101185.44;5084629;28;20523;-51
2022/07/02 04:41:57;;;;;;;0.77;0.77;;;;;;;9.54;100.00;101191.06;5076172;28;20060;-51
2022/07/02 04:44:23;;;;;;;2.67;1.08;;;;;;;9.61;100.00;101190.22;5088864;28;20110;-51
2022/07/02 04:46:48;;;;;;;5.80;1.85;;;;;;;9.61;100.00;101184.94;5085332;28;20085;-51
2022/07/02 04:49:14;;;;;;;6.32;0.32;;;;;;;9.67;100.00;101190.56;5063143;28;20060;-46
2022/07/02 04:51:39;;;;;;;2.15;0.75;;;;;;;9.67;100.00;101193.19;5081873;28;20044;-50
2022/07/02 04:54:05;;;;;;;1.63;0.50;;;;;;;9.68;100.00;101194.84;5074645;28;20461;-54
2022/07/02 04:56:30;;;;;;;6.47;0.63;;;;;;;9.73;100.00;101197.81;5084473;28;20054;-49
2022/07/02 04:58:56;;;;;;;1.15;0.52;;;;;;;9.83;100.00;101203.75;5078747;28;20433;-45
2022/07/02 05:01:23;;;;;;;6.53;0.80;;;;;;;9.91;100.00;101206.38;5075070;28;20507;-49
2022/07/02 05:03:50;;;;;;;1.90;0.43;;;;;;;9.93;100.00;101206.22;5072623;28;20021;-53
2022/07/02 05:06:15;;;;;;;4.00;1.20;;;;;;;9.98;100.00;101207.38;5086761;28;20032;-49
2022/07/02 05:08:41;;;;;;;7.22;0.82;;;;;;;10.06;100.00;101209.19;5075798;28;20025;-51
2022/07/02 05:11:06;;;;;;;7.43;0.90;;;;;;;10.16;100.00;101211.66;5081232;28;20032;-49
2022/07/02 05:13:32;;;;;;;2.25;0.45;;;;;;;10.26;100.00;101197.19;5079759;28;20031;-49
2022/07/02 05:15:57;;;;;;;4.25;0.60;;;;;;;10.24;100.00;101201.84;5068862;28;20442;-47
2022/07/02 05:18:24;;;;;;;0.93;0.65;;;;;;;10.29;100.00;101197.88;5078151;28;20104;-49
2022/07/02 05:20:49;;;;;;;2.08;0.57;;;;;;;10.29;100.00;101197.88;5085182;28;20063;-45
2022/07/02 05:23:15;;;;;;;2.38;0.40;;;;;;;10.34;100.00;101196.38;5084845;28;20056;-44
2022/07/02 05:25:41;;;;;;;6.03;0.73;;;;;;;10.44;100.00;101180.25;5087053;28;20469;-47
2022/07/02 05:28:06;;;;;;;1.95;0.30;;;;;;;10.53;100.00;101186.34;5070957;28;20069;-46
2022/07/02 05:30:33;;;;;;;7.72;0.80;;;;;;;10.55;100.00;101179.03;5088972;28;20020;-46
2022/07/02 05:32:58;;;;;;;3.88;0.50;;;;;;;10.57;100.00;101185.81;5091911;28;20396;-46
2022/07/02 05:35:23;;;;;;;1.90;0.40;;;;;;;10.58;100.00;101182.16;5086977;28;20027;-45
2022/07/02 05:37:49;;;;;;;2.63;1.02;;;;;;;10.59;100.00;101185.66;5083795;28;20027;-46
2022/07/02 05:40:14;;;;;;;2.90;0.40;;;;;;;10.65;100.00;101185.78;5072538;28;20446;-44
2022/07/02 05:42:40;;;;;;;3.70;0.80;;;;;;;10.68;100.00;101182.78;5070547;28;20028;-45
2022/07/02 05:45:06;;;;;;;8.80;2.17;;;;;;;10.72;100.00;101183.25;5098522;28;20027;-44
2022/07/02 05:47:31;;;;;;;8.32;0.50;;;;;;;10.78;100.00;101181.72;5086462;28;20074;-45
2022/07/02 05:49:57;;;;;;;3.75;0.28;;;;;;;10.79;100.00;101162.16;5087683;28;20036;-48
2022/07/02 05:52:22;;;;;;;3.00;0.30;;;;;;;10.82;100.00;101161.81;5085971;28;20032;-49
2022/07/02 05:54:48;;;;;;;0.65;0.20;;;;;;;10.85;100.00;101166.78;5083747;28;20508;-49
2022/07/02 05:57:13;;;;;;;1.80;0.90;;;;;;;10.94;100.00;101157.75;5079078;28;20028;-46
2022/07/02 05:59:39;;;;;;;3.47;1.15;;;;;;;11.06;100.00;101169.59;5076757;28;20397;-49
2022/07/02 06:02:04;;;;;;;4.78;0.90;;;;;;;11.13;100.00;101173.19;5077343;28;20032;-48
2022/07/02 06:04:31;;;;;;;1.10;0.60;;;;;;;11.18;100.00;101172.69;5080737;28;20077;-43
2022/07/02 06:09:41;;;;;;;3.42;0.28;;;;;;;11.50;100.00;101176.88;5080339;28;20082;-45
2022/07/02 06:12:07;;;;;;;2.13;0.50;;;;;;;11.69;100.00;101174.69;5079944;28;20070;-47
2022/07/02 06:14:33;;;;;;;2.78;0.70;;;;;;;11.89;100.00;101175.84;5084540;28;20020;-49
2022/07/02 06:16:59;;;;;;;2.15;0.50;;;;;;;12.11;100.00;101165.34;5079550;28;20112;-51
2022/07/02 06:19:24;;;;;;;3.90;1.05;;;;;;;12.31;100.00;101162.91;5081606;28;20030;-50
2022/07/02 06:21:50;;;;;;;4.28;0.55;;;;;;;12.40;100.00;101157.31;5083122;28;20071;-51
2022/07/02 06:24:15;;;;;;;5.60;0.32;;;;;;;12.50;100.00;101153.53;5067613;28;20036;-51
2022/07/02 06:26:41;;;;;;;1.70;0.52;;;;;;;12.55;100.00;101154.63;5079994;28;20082;-48
2022/07/02 06:29:06;;;;;;;5.15;0.50;;;;;;;12.61;100.00;101155.69;5076405;28;20417;-47
2022/07/02 06:31:32;;;;;;;3.35;0.20;;;;;;;12.70;100.00;101148.41;5083545;28;20034;-47
2022/07/02 06:33:57;;;;;;;0.50;0.30;;;;;;;12.83;100.00;101152.06;5066545;28;20348;-52
2022/07/02 06:36:24;;;;;;;1.45;0.17;;;;;;;12.92;100.00;101155.41;5089652;28;20063;-50
2022/07/02 06:38:50;;;;;;;3.65;0.40;;;;;;;13.01;100.00;101148.94;5077858;28;20087;-45
2022/07/02 06:42:18;;;;;;;3.30;0.40;;;;;;;13.13;100.00;101140.44;5093062;28;20062;-51
2022/07/02 06:44:03;;;;;;;2.60;0.20;;;;;;;13.23;100.00;101133.78;5082610;28;20482;-47
2022/07/02 06:46:28;;;;;;;4.70;1.10;;;;;;;13.31;100.00;101138.97;5076623;28;20062;-52
2022/07/02 06:48:54;;;;;;;3.88;0.30;;;;;;;13.35;100.00;101139.44;5077970;28;20048;-50
2022/07/02 06:51:20;;;;;;;2.00;0.25;;;;;;;13.35;100.00;101134.09;5077899;28;20031;-55
2022/07/02 06:53:45;;;;;;;7.22;0.10;;;;;;;13.40;100.00;101136.16;5080595;28;20036;-45
2022/07/02 06:56:11;;;;;;;5.78;1.17;;;;;;;13.46;100.00;101132.75;5064198;28;20542;-51
2022/07/02 06:58:36;;;;;;;1.75;0.17;;;;;;;13.47;100.00;101126.41;5076684;28;20024;-56
2022/07/02 07:01:01;;;;;;;3.20;0.20;;;;;;;13.53;100.00;101130.97;5075046;28;20032;-47
2022/07/02 07:03:27;;;;;;;1.23;0.15;;;;;;;13.57;100.00;101129.53;5073884;28;20031;-50
2022/07/02 07:05:52;;;;;;;0.50;0.43;;;;;;;13.60;100.00;101134.47;5077406;28;20024;-49
2022/07/02 07:08:18;;;;;;;2.35;0.20;;;;;;;13.67;100.00;101127.34;5075129;28;20028;-51
2022/07/02 07:10:45;;;;;;;3.40;0.10;;;;;;;13.75;100.00;101132.53;5075516;28;20135;-48
2022/07/02 07:13:10;;;;;;;2.92;0.55;;;;;;;13.82;100.00;101132.56;5075601;28;20094;-53
2022/07/02 07:15:35;;;;;;;2.40;0.85;;;;;;;13.89;100.00;101130.78;5078664;28;20032;-46
2022/07/02 07:18:01;;;;;;;1.52;0.10;;;;;;;14.05;100.00;101131.47;5064787;28;20127;-51
2022/07/02 07:20:29;;;;;;;2.28;0.38;;;;;;;14.08;100.00;101123.88;5080962;28;20433;-47
2022/07/02 07:22:55;;;;;;;1.27;0.75;;;;;;;14.17;100.00;101121.84;5069655;28;20028;-58
2022/07/02 07:25:20;;;;;;;1.60;0.20;;;;;;;14.25;100.00;101126.19;5068164;28;20419;-51
2022/07/02 07:27:46;;;;;;;1.55;0.00;;;;;;;14.30;100.00;101105.09;5071372;28;20036;-49
2022/07/02 07:30:12;;;;;;;4.70;0.08;;;;;;;14.38;100.00;101115.59;5071795;28;20119;-44
2022/07/02 07:32:38;;;;;;;2.95;0.98;;;;;;;14.45;100.00;101111.09;5070272;28;20051;-44
2022/07/02 07:35:04;;;;;;;4.07;0.98;;;;;;;14.56;100.00;101105.22;5070035;28;20052;-44
2022/07/02 07:37:30;;;;;;;1.15;0.28;;;;;;;14.75;100.00;101102.78;5070572;28;20033;-47
2022/07/02 07:39:55;;;;;;;2.88;0.40;;;;;;;14.91;100.00;101098.88;5073628;28;20031;-50
2022/07/02 07:42:22;;;;;;;3.72;1.15;;;;;;;14.91;100.00;101089.03;5074621;28;20476;-47
2022/07/02 07:44:50;;;;;;;8.52;1.55;;;;;;;14.91;100.00;101082.88;5074290;28;20039;-51
2022/07/02 07:47:16;;;;;;;4.45;1.13;;;;;;;14.96;100.00;101083.06;5067652;28;20033;-45
2022/07/02 07:49:41;;;;;;;0.50;0.20;;;;;;;15.00;100.00;101087.00;5066121;28;20077;-56
2022/07/02 07:52:07;;;;;;;2.40;0.22;;;;;;;15.06;100.00;101088.81;5070289;28;20024;-50
2022/07/02 07:54:33;;;;;;;2.60;0.20;;;;;;;15.03;100.00;101086.56;5066974;28;20039;-52
2022/07/02 07:56:58;;;;;;;1.45;0.20;;;;;;;15.16;100.00;101077.75;5069403;28;20040;-44
2022/07/02 07:59:24;;;;;;;2.50;0.20;;;;;;;15.16;100.00;101077.75;5072470;28;20119;-57
2022/07/02 08:01:49;;;;;;;3.40;0.25;;;;;;;15.43;100.00;101081.19;5073441;28;20107;-46
2022/07/02 08:04:14;;;;;;;1.10;0.00;;;;;;;15.83;100.00;101073.91;5069565;28;20036;-45
2022/07/02 08:06:40;;;;;;;0.98;0.03;;;;;;;16.19;100.00;101082.44;5069700;28;20050;-51
2022/07/02 08:09:05;;;;;;;2.28;0.10;;;;;;;16.36;100.00;101081.69;5072836;28;20050;-47
2022/07/02 08:11:31;;;;;;;0.65;0.20;;;;;;;16.41;100.00;101078.38;5071623;28;20177;-55
2022/07/02 08:13:56;;;;;;;1.60;0.35;;;;;;;16.63;100.00;101076.19;5071351;28;20115;-51
2022/07/02 08:16:22;;;;;;;3.30;0.35;;;;;;;16.65;100.00;101075.94;5069877;28;20469;-47
2022/07/02 08:18:48;;;;;;;11.30;0.10;;;;;;;16.63;100.00;101073.50;5055495;28;20041;-45
2022/07/02 08:21:13;;;;;;;0.93;0.32;;;;;;;16.48;100.00;101064.97;5070733;28;20035;-55
2022/07/02 08:23:39;;;;;;;1.52;0.30;;;;;;;16.33;100.00;101071.41;5076994;28;20165;-46
2022/07/02 08:26:04;;;;;;;1.67;0.10;;;;;;;16.24;100.00;101075.41;5070180;28;20028;-48
2022/07/02 08:28:30;;;;;;;3.97;0.10;;;;;;;16.15;100.00;101063.28;5054181;28;20128;-47
2022/07/02 08:30:55;;;;;;;1.80;0.28;;;;;;;16.15;100.00;101065.97;5069169;28;20480;-50
2022/07/02 08:33:20;;;;;;;1.95;0.10;;;;;;;16.16;100.00;101058.75;5067063;28;20111;-48
2022/07/02 08:35:46;;;;;;;0.32;0.32;;;;;;;16.13;100.00;101065.34;5067255;28;20036;-50
2022/07/02 08:38:12;;;;;;;9.70;2.08;;;;;;;16.19;100.00;101059.16;5075715;28;20070;-47
2022/07/02 08:40:41;;;;;;;4.90;0.30;;;;;;;16.35;100.00;101055.97;5082263;28;20119;-45
2022/07/02 08:43:07;;;;;;;3.15;0.20;;;;;;;16.41;100.00;101054.28;5084887;28;20365;-47
2022/07/02 08:45:33;;;;;;;1.08;0.00;;;;;;;16.53;100.00;101057.91;5079507;28;20107;-61
2022/07/02 08:47:59;;;;;;;1.20;0.10;;;;;;;16.55;100.00;101055.03;5079056;28;20505;-58
2022/07/02 08:50:26;;;;;;;0.45;0.00;;;;;;;16.66;100.00;101048.97;5072482;28;20035;-46
2022/07/02 08:52:52;;;;;;;1.73;0.32;;;;;;;16.75;100.00;101061.06;5073723;28;20476;-51
2022/07/02 08:55:19;;;;;;;0.70;0.15;;;;;;;16.88;100.00;101045.94;5059738;28;20032;-48
2022/07/02 08:57:45;;;;;;;2.50;0.10;;;;;;;17.05;100.00;101039.00;5069636;28;20204;-54
2022/07/02 09:00:11;;;;;;;0.70;0.00;;;;;;;17.09;100.00;101044.72;5068499;28;20028;-56
2022/07/02 09:02:38;;;;;;;3.00;0.63;;;;;;;17.09;100.00;101048.25;5066403;28;20025;-49
2022/07/02 09:05:04;;;;;;;2.03;0.00;;;;;;;17.08;100.00;101048.47;5068199;28;20062;-46
2022/07/02 09:07:30;;;;;;;1.77;0.50;;;;;;;17.07;100.00;101044.97;5068813;28;20029;-45
2022/07/02 09:09:59;;;;;;;3.65;0.10;;;;;;;17.03;100.00;101040.25;5045920;28;20081;-51
2022/07/02 09:12:25;;;;;;;2.28;0.03;;;;;;;16.98;100.00;101049.75;5045999;28;20055;-49
2022/07/02 09:14:51;;;;;;;1.17;0.03;;;;;;;16.98;100.00;101046.28;5044673;28;20025;-52
2022/07/02 09:17:16;;;;;;;0.90;0.03;;;;;;;17.06;100.00;101040.63;5051761;28;20047;-51
2022/07/02 09:19:41;;;;;;;2.63;0.10;;;;;;;16.98;100.00;101033.69;5045693;28;20032;-49
2022/07/02 09:22:08;;;;;;;1.13;0.60;;;;;;;16.93;100.00;101043.44;5025532;28;20191;-51
2022/07/02 09:24:39;;;;;;;0.13;0.00;;;;;;;16.90;100.00;101035.84;5055231;28;20028;-54
2022/07/02 09:27:07;;;;;;;0.13;0.00;;;;;;;16.84;100.00;101034.03;5046245;28;20473;-47
2022/07/02 09:29:59;;;;;;;0.13;0.00;;;;;;;16.79;100.00;101038.19;5049333;28;20515;-49
2022/07/02 09:32:25;;;;;;;3.22;0.20;;;;;;;16.83;100.00;101030.56;5047097;28;20060;-48
2022/07/02 09:34:53;;;;;;;0.90;0.10;;;;;;;17.03;100.00;101030.34;5057422;28;20032;-51
2022/07/02 09:37:19;;;;;;;5.95;1.00;;;;;;;17.21;100.00;101030.38;5061810;28;20046;-47
2022/07/02 09:39:47;;;;;;;2.45;0.20;;;;;;;17.25;100.00;101032.66;5055584;28;20021;-48
2022/07/02 09:42:23;;;;;;;1.20;0.20;;;;;;;17.41;100.00;101029.38;5035920;28;20082;-47
2022/07/02 09:44:49;;;;;;;1.23;0.00;;;;;;;17.55;100.00;101027.34;5063760;28;20404;-53
2022/07/02 09:47:14;;;;;;;0.88;0.00;;;;;;;17.74;100.00;101020.13;5060061;28;20040;-53
2022/07/02 09:49:50;;;;;;;0.15;0.00;;;;;;;17.80;100.00;101028.13;5063778;28;20555;-48
2022/07/02 09:52:17;;;;;;;2.63;0.10;;;;;;;17.79;100.00;101017.59;5056991;28;20551;-48
2022/07/02 09:54:43;;;;;;;1.75;0.40;;;;;;;17.85;100.00;101030.94;5054438;28;20137;-46
2022/07/02 09:57:11;;;;;;;1.45;0.10;;;;;;;17.80;100.00;101024.63;5050517;28;20034;-54
2022/07/02 09:59:38;;;;;;;0.10;0.00;;;;;;;17.68;100.00;101016.47;5051946;28;20444;-50
2022/07/02 10:02:05;;;;;;;6.00;0.28;;;;;;;17.48;100.00;101021.25;5049052;28;20080;-45
2022/07/02 10:04:33;;;;;;;1.65;0.10;;;;;;;17.46;100.00;101018.81;5058381;28;20090;-44
2022/07/02 10:07:00;;;;;;;1.52;0.00;;;;;;;17.57;100.00;101012.69;5053046;28;20031;-48
2022/07/02 10:09:26;;;;;;;0.93;0.03;;;;;;;17.78;100.00;101021.31;5030796;28;20029;-56
2022/07/02 10:11:52;;;;;;;0.95;0.00;;;;;;;17.80;100.00;101013.88;5040431;28;20401;-53
2022/07/02 10:14:23;;;;;;;0.52;0.20;;;;;;;17.80;100.00;101019.25;5059222;28;20048;-44
2022/07/02 10:16:50;;;;;;;1.77;0.55;;;;;;;17.83;100.00;101024.97;5045346;28;20029;-50
2022/07/02 10:19:17;;;;;;;0.88;0.10;;;;;;;17.84;100.00;101015.91;5052119;28;20033;-45
2022/07/02 10:21:43;;;;;;;0.38;0.10;;;;;;;18.13;100.00;101018.00;5050376;28;20389;-44
2022/07/02 10:24:11;;;;;;;0.90;0.10;;;;;;;18.30;100.00;101025.19;5055902;28;20064;-54
2022/07/02 10:26:37;;;;;;;3.17;0.13;;;;;;;18.43;100.00;101016.13;5065596;28;20388;-52
2022/07/02 10:29:02;;;;;;;3.53;0.20;;;;;;;18.58;100.00;101018.34;5058698;28;20052;-58
2022/07/02 10:31:33;;;;;;;1.40;0.50;;;;;;;18.45;100.00;101030.09;5056077;28;20029;-48
2022/07/02 10:34:18;;;;;;;0.95;0.10;;;;;;;18.29;100.00;101026.22;5052377;28;20393;-45
2022/07/02 10:36:43;;;;;;;0.55;0.05;;;;;;;18.26;100.00;101028.56;5054603;28;20041;-46
2022/07/02 10:39:15;;;;;;;1.00;0.50;;;;;;;18.12;100.00;101019.03;5041659;28;20028;-45
2022/07/02 10:41:40;;;;;;;1.98;0.00;;;;;;;18.03;100.00;101022.03;5058674;28;20525;-49
2022/07/02 10:44:09;;;;;;;0.63;0.00;;;;;;;17.94;100.00;101034.16;5049045;28;20033;-53
2022/07/02 10:46:36;;;;;;;3.45;0.40;;;;;;;17.86;100.00;101029.06;5043374;28;20024;-47
2022/07/02 10:49:04;;;;;;;0.77;0.00;;;;;;;17.86;100.00;101042.47;5048864;28;20063;-52
2022/07/02 10:51:35;;;;;;;2.50;0.00;;;;;;;17.75;100.00;101036.00;5052853;28;20094;-47
2022/07/02 10:54:06;;;;;;;1.13;0.10;;;;;;;17.83;100.00;101035.72;5035083;28;20117;-52
2022/07/02 10:56:44;;;;;;;1.27;0.00;;;;;;;18.02;100.00;101031.16;5054561;28;20464;-54
2022/07/02 10:59:27;;;;;;;1.58;0.13;;;;;;;18.07;100.00;101036.66;5056655;28;20104;-46
2022/07/02 11:02:06;;;;;;;1.65;0.05;;;;;;;18.02;100.00;101023.09;5055929;28;20048;-46
2022/07/02 11:04:32;;;;;;;4.13;0.13;;;;;;;17.99;100.00;101020.03;5051121;28;20032;-47
2022/07/02 11:07:12;;;;;;;3.70;0.05;;;;;;;18.24;100.00;101019.91;5052679;28;20629;-46
2022/07/02 11:09:50;;;;;;;1.35;0.00;;;;;;;18.70;100.00;101013.81;5046145;28;20397;-44
2022/07/02 11:12:23;;;;;;;1.10;0.00;;;;;;;18.92;100.00;101010.59;5048187;28;20156;-45
2022/07/02 11:14:56;;;;;;;0.77;0.10;;;;;;;18.86;100.00;101006.97;5051365;28;20630;-62
2022/07/02 11:17:24;;;;;;;2.95;0.17;;;;;;;18.91;100.00;100995.53;5052399;28;20036;-48
2022/07/02 11:19:57;;;;;;;2.75;0.22;;;;;;;19.11;100.00;101014.00;5055069;28;20104;-47
2022/07/02 11:22:22;;;;;;;2.58;0.10;;;;;;;19.28;100.00;100995.25;5052744;28;20442;-48